Saint Louis, Missouri
Traffic Map
Current Weather Conditions
Saint Louis, Missouri
Clear
Clear
63°
Feels Like: 63°
Wind Chill: 63° Ceiling: Unl
Heat Index: 63° Visibility: 10mi
Dew Point: 51° Wind: 9mph
Humidity: 65% Direction: 20° (NNE)
Pressure: 30.23in Gusts: 17mph
Raw Report DataKCPS 220753Z AUTO 02008G15KT 10SM CLR 17/11 A3023 RMK AO2 SLP232 T01720106
Traffic Incident Summary
Active as of:
Severity:
Category:
InformationThere was an issue retrieving the traffic information for this location. Please try a different location or try again shortly.
Advertisements